Time;durP1;ratioP1;P1;durP2;ratioP2;P2;SDS_P1;SDS_P2;PMS_P1;PMS_P2;Temp;Humidity;BMP_temperature;BMP_pressure;BME280_temperature;BME280_humidity;BME280_pressure;Samples;Min_cycle;Max_cycle;Signal;HPM_P1;HPM_P2
2022/05/22 00:05:21;;;;;;;1.33;0.90;;;11.00;99.90;;;;;;10384574;28;20391;-78
2022/05/22 00:10:43;;;;;;;1.53;1.03;;;11.00;99.90;;;;;;10394811;28;20201;-79
2022/05/22 00:21:45;;;;;;;2.10;1.17;;;11.10;99.90;;;;;;10402619;28;20407;-79
2022/05/22 00:27:08;;;;;;;2.87;1.23;;;11.10;99.90;;;;;;10403819;28;20196;-79
2022/05/22 00:32:29;;;;;;;1.13;0.90;;;11.10;99.90;;;;;;10402627;28;20236;-80
2022/05/22 00:37:51;;;;;;;1.53;0.97;;;11.10;99.90;;;;;;10402195;28;20421;-80
2022/05/22 00:43:34;;;;;;;2.13;0.60;;;11.10;99.90;;;;;;10402072;28;20231;-79
2022/05/22 00:49:06;;;;;;;1.37;0.90;;;11.00;99.90;;;;;;10402855;28;20197;-79
2022/05/22 00:54:52;;;;;;;3.13;0.83;;;11.00;99.90;;;;;;10372580;28;20204;-79
2022/05/22 01:00:21;;;;;;;1.00;0.90;;;11.00;99.90;;;;;;10403010;28;20460;-79
2022/05/22 01:05:47;;;;;;;0.93;0.50;;;11.00;99.90;;;;;;10424305;28;20223;-79
2022/05/22 01:11:13;;;;;;;1.63;0.80;;;11.00;99.90;;;;;;10401903;28;20549;-79
2022/05/22 01:16:35;;;;;;;0.77;0.70;;;11.00;99.90;;;;;;10401021;28;20220;-79
2022/05/22 01:22:02;;;;;;;0.77;0.70;;;11.00;99.90;;;;;;10386102;28;20231;-79
2022/05/22 01:27:25;;;;;;;1.87;0.80;;;11.10;99.90;;;;;;10385525;28;20410;-79
2022/05/22 01:33:05;;;;;;;1.50;0.90;;;11.00;99.90;;;;;;10400398;28;20303;-79
2022/05/22 01:38:27;;;;;;;1.17;0.77;;;11.10;99.90;;;;;;10400166;28;20515;-79
2022/05/22 01:43:49;;;;;;;1.47;0.70;;;11.00;99.90;;;;;;10385618;28;20427;-80
2022/05/22 01:49:13;;;;;;;0.70;0.70;;;11.00;99.90;;;;;;10399891;28;20253;-79
2022/05/22 01:54:36;;;;;;;0.90;0.70;;;11.00;99.90;;;;;;10398448;28;20209;-79
2022/05/22 01:59:59;;;;;;;0.70;0.70;;;11.00;99.90;;;;;;10398997;28;20460;-80
2022/05/22 02:05:21;;;;;;;1.03;0.60;;;11.00;99.90;;;;;;10386392;28;20205;-79
2022/05/22 02:10:44;;;;;;;1.13;0.70;;;10.90;99.90;;;;;;10384658;28;20278;-79
2022/05/22 02:16:05;;;;;;;0.90;0.70;;;10.90;99.90;;;;;;10398424;28;20200;-79
2022/05/22 02:21:26;;;;;;;0.80;0.80;;;10.90;99.90;;;;;;10383928;28;20232;-79
2022/05/22 02:26:48;;;;;;;2.03;1.13;;;10.90;99.90;;;;;;10398036;28;20246;-79
2022/05/22 02:32:09;;;;;;;2.43;1.30;;;10.80;99.90;;;;;;10397744;28;20196;-80
2022/05/22 02:37:31;;;;;;;1.67;1.50;;;10.80;94.70;;;;;;10397112;28;20196;-80
2022/05/22 02:42:54;;;;;;;1.27;1.10;;;10.80;72.00;;;;;;10383194;28;20232;-80
2022/05/22 02:48:20;;;;;;;1.97;1.10;;;10.80;62.40;;;;;;10342661;28;20267;-79
2022/05/22 02:53:54;;;;;;;1.90;1.03;;;10.80;49.90;;;;;;10353870;28;20210;-80
2022/05/22 02:59:42;;;;;;;2.53;1.40;;;10.80;60.10;;;;;;10386293;28;20314;-80
2022/05/22 03:05:24;;;;;;;1.10;1.00;;;10.80;52.70;;;;;;10383830;28;20197;-80
2022/05/22 03:10:46;;;;;;;1.33;1.23;;;10.80;28.20;;;;;;10397436;28;20275;-80
2022/05/22 03:16:08;;;;;;;3.63;1.23;;;10.80;21.60;;;;;;10382409;28;20518;-79
2022/05/22 03:21:45;;;;;;;3.83;1.40;;;10.80;18.50;;;;;;10381889;28;20229;-79
2022/05/22 03:27:17;;;;;;;1.77;1.33;;;10.80;20.70;;;;;;10395994;28;20377;-79
2022/05/22 03:32:39;;;;;;;2.23;1.50;;;10.80;19.20;;;;;;10395264;28;20236;-79
2022/05/22 03:38:02;;;;;;;1.97;1.53;;;10.80;13.00;;;;;;10381345;28;20204;-78
2022/05/22 03:43:23;;;;;;;1.70;1.27;;;10.80;17.80;;;;;;10395223;28;20228;-79
2022/05/22 03:48:45;;;;;;;1.67;1.33;;;10.70;20.10;;;;;;10394567;28;20223;-79
2022/05/22 03:54:06;;;;;;;1.20;1.10;;;10.60;19.60;;;;;;10395822;28;20279;-79
2022/05/22 03:59:33;;;;;;;1.63;1.23;;;10.60;29.50;;;;;;10380846;28;20317;-79
2022/05/22 04:04:57;;;;;;;2.03;1.70;;;10.60;43.40;;;;;;10424208;28;20191;-79
2022/05/22 04:10:19;;;;;;;2.27;1.20;;;10.60;28.50;;;;;;10394917;28;20491;-79
2022/05/22 04:15:41;;;;;;;2.47;1.67;;;10.60;42.00;;;;;;10380338;28;20199;-79
2022/05/22 04:21:04;;;;;;;2.60;1.57;;;10.60;35.10;;;;;;10394738;28;20224;-78
2022/05/22 04:26:37;;;;;;;2.60;1.27;;;10.70;34.50;;;;;;10394321;28;20203;-79
2022/05/22 04:32:04;;;;;;;2.70;1.20;;;10.70;35.30;;;;;;10394484;28;20474;-79
2022/05/22 04:37:33;;;;;;;4.03;1.67;;;10.80;41.90;;;;;;10381765;28;20220;-79
2022/05/22 04:42:57;;;;;;;2.47;1.53;;;10.80;32.50;;;;;;10394142;28;20535;-79
2022/05/22 04:48:21;;;;;;;2.90;1.50;;;10.80;58.00;;;;;;10394086;28;20196;-78
2022/05/22 04:53:51;;;;;;;1.93;1.57;;;10.80;79.90;;;;;;10393969;28;20204;-80
2022/05/22 04:59:12;;;;;;;2.33;1.60;;;10.80;84.40;;;;;;10393487;28;20274;-79
2022/05/22 05:04:34;;;;;;;1.77;1.50;;;10.90;56.50;;;;;;10430619;28;20193;-78
2022/05/22 05:09:58;;;;;;;4.40;1.30;;;11.10;34.10;;;;;;10401183;28;20196;-78
2022/05/22 05:16:08;;;;;;;1.93;1.50;;;11.10;40.40;;;;;;10399513;28;20224;-77
2022/05/22 05:21:58;;;;;;;1.73;1.43;;;11.00;29.30;;;;;;10399973;28;20231;-78
2022/05/22 05:27:19;;;;;;;2.70;1.90;;;11.10;5.20;;;;;;10360799;28;20436;-78
2022/05/22 05:33:04;;;;;;;1.27;1.17;;;11.20;2.00;;;;;;10345251;28;20248;-77
2022/05/22 05:38:45;;;;;;;2.60;1.57;;;11.40;1.00;;;;;;10358928;28;20459;-78
2022/05/22 05:44:36;;;;;;;7.77;1.37;;;11.60;1.00;;;;;;10383142;28;20198;-78
2022/05/22 05:50:21;;;;;;;3.00;1.63;;;11.80;1.00;;;;;;10398393;28;20204;-78
2022/05/22 05:55:43;;;;;;;3.27;1.47;;;12.00;1.00;;;;;;10399999;28;20253;-78
2022/05/22 06:01:35;;;;;;;3.60;1.83;;;12.30;1.00;;;;;;10397730;28;20216;-78
2022/05/22 06:06:59;;;;;;;3.05;1.67;;;12.60;1.00;;;;;;10384609;28;20199;-79
2022/05/22 06:12:21;;;;;;;2.38;1.55;;;12.90;1.00;;;;;;10384193;28;20194;-79
2022/05/22 06:17:56;;;;;;;3.05;1.30;;;13.00;1.00;;;;;;10398633;28;20192;-79
2022/05/22 06:23:18;;;;;;;2.65;1.65;;;13.10;1.00;;;;;;10343515;28;20395;-79
2022/05/22 06:29:07;;;;;;;1.70;1.53;;;13.10;1.00;;;;;;10357112;28;20201;-79
2022/05/22 06:34:49;;;;;;;2.28;1.50;;;13.40;1.00;;;;;;10356609;28;20260;-79
2022/05/22 06:40:42;;;;;;;2.28;1.52;;;13.50;99.90;;;;;;10313868;28;20292;-78
2022/05/22 06:46:30;;;;;;;1.48;1.33;;;13.70;99.90;;;;;;10313661;28;20665;-78
2022/05/22 06:52:14;;;;;;;2.85;1.30;;;14.30;68.60;;;;;;10289702;28;20210;-78
2022/05/22 06:57:42;;;;;;;3.13;1.35;;;15.40;1.00;;;;;;10299373;28;20243;-79
2022/05/22 07:03:22;;;;;;;2.20;1.40;;;15.70;99.90;;;;;;10286642;28;20265;-79
2022/05/22 07:09:07;;;;;;;1.35;1.20;;;15.80;1.00;;;;;;10296740;28;20212;-78
2022/05/22 07:14:32;;;;;;;3.13;1.80;;;15.60;1.00;;;;;;10351054;28;20203;-78
2022/05/22 07:20:19;;;;;;;2.65;1.48;;;15.80;1.00;;;;;;10396444;28;20230;-79
2022/05/22 07:26:05;;;;;;;1.92;1.20;;;16.10;1.00;;;;;;10395677;28;20226;-78
2022/05/22 07:31:45;;;;;;;6.28;1.60;;;16.50;1.00;;;;;;10395973;28;20201;-78
2022/05/22 07:37:25;;;;;;;2.38;1.33;;;16.90;1.00;;;;;;10395185;28;20249;-78
2022/05/22 07:43:07;;;;;;;3.83;1.40;;;17.10;99.90;;;;;;10396023;28;20230;-78
2022/05/22 07:48:51;;;;;;;1.92;1.17;;;17.10;99.90;;;;;;10396275;28;20196;-78
2022/05/22 07:54:44;;;;;;;3.10;1.17;;;17.30;99.90;;;;;;10378941;28;20202;-78
2022/05/22 08:00:31;;;;;;;1.52;1.10;;;17.30;85.70;;;;;;10400016;28;20226;-78
2022/05/22 08:05:57;;;;;;;1.45;1.10;;;17.20;1.00;;;;;;10402540;28;20207;-79
2022/05/22 08:11:18;;;;;;;2.85;1.50;;;17.30;1.00;;;;;;10366678;28;20430;-78
2022/05/22 08:16:45;;;;;;;3.72;1.20;;;17.30;1.00;;;;;;10394736;28;20199;-79
2022/05/22 08:22:12;;;;;;;1.70;1.40;;;17.60;1.00;;;;;;10394422;28;20302;-79
2022/05/22 08:28:08;;;;;;;3.03;1.58;;;17.60;1.00;;;;;;10394555;28;20198;-79
2022/05/22 08:33:29;;;;;;;4.18;1.40;;;17.60;1.00;;;;;;10394153;28;20232;-80
2022/05/22 08:38:52;;;;;;;2.10;1.45;;;18.10;1.00;;;;;;10401519;28;20200;-79
2022/05/22 08:44:29;;;;;;;2.55;1.52;;;18.80;1.00;;;;;;10402926;28;20200;-80
2022/05/22 08:50:11;;;;;;;2.03;1.30;;;18.60;1.00;;;;;;10402677;28;20199;-80
2022/05/22 09:01:59;;;;;;;2.42;1.40;;;18.80;1.00;;;;;;10387078;28;20217;-80
2022/05/22 09:07:38;;;;;;;2.88;1.60;;;19.20;1.00;;;;;;10411266;28;20500;-80
2022/05/22 09:13:09;;;;;;;1.95;1.50;;;19.40;99.90;;;;;;10401534;28;20499;-80
2022/05/22 09:18:58;;;;;;;2.05;1.02;;;19.50;99.90;;;;;;10389598;28;20193;-80
2022/05/22 09:24:51;;;;;;;4.88;1.40;;;19.10;1.00;;;;;;10400508;28;20197;-80
2022/05/22 09:30:29;;;;;;;4.95;1.52;;;19.70;34.40;;;;;;10401111;28;20193;-80
2022/05/22 09:36:16;;;;;;;4.15;1.40;;;19.90;1.00;;;;;;10399626;28;20226;-80
2022/05/22 09:41:56;;;;;;;4.10;1.50;;;20.60;1.00;;;;;;10326257;28;20426;-79
2022/05/22 09:47:23;;;;;;;3.63;2.28;;;21.30;1.00;;;;;;10315176;28;20238;-80
2022/05/22 09:53:04;;;;;;;2.00;1.48;;;20.80;99.90;;;;;;10304109;28;20409;-80
2022/05/22 09:59:01;;;;;;;2.78;1.60;;;19.70;99.90;;;;;;10355911;28;20212;-79
2022/05/22 10:04:49;;;;;;;1.88;1.70;;;19.50;99.90;;;;;;10384769;28;20222;-80
2022/05/22 10:10:31;;;;;;;4.75;1.90;;;19.90;99.90;;;;;;10355444;28;20492;-79
2022/05/22 10:16:30;;;;;;;7.55;1.65;;;19.60;99.90;;;;;;10355989;28;20253;-79
2022/05/22 10:22:14;;;;;;;4.35;1.50;;;20.00;99.90;;;;;;10354748;28;20221;-80
2022/05/22 10:27:47;;;;;;;4.55;1.65;;;20.90;99.90;;;;;;10354782;28;20205;-80
2022/05/22 10:33:25;;;;;;;4.03;1.75;;;20.60;8.30;;;;;;10384849;28;20220;-79
2022/05/22 10:38:55;;;;;;;1.92;1.40;;;19.50;1.00;;;;;;10378311;28;20229;-79
2022/05/22 10:44:19;;;;;;;3.15;1.60;;;19.30;18.90;;;;;;10365140;28;20213;-79
2022/05/22 10:49:42;;;;;;;5.50;1.70;;;19.10;44.50;;;;;;10395176;28;20213;-79
2022/05/22 10:55:15;;;;;;;5.43;1.60;;;19.30;90.60;;;;;;10396907;28;20496;-79
2022/05/22 11:00:36;;;;;;;2.83;1.63;;;19.70;32.40;;;;;;10366394;28;20270;-79
2022/05/22 11:06:02;;;;;;;2.63;1.90;;;19.00;45.60;;;;;;10404015;28;20197;-80
2022/05/22 11:11:33;;;;;;;4.10;2.25;;;19.40;63.50;;;;;;10395810;28;20280;-80
2022/05/22 11:16:54;;;;;;;2.42;1.90;;;19.80;61.40;;;;;;10382040;28;20219;-80
2022/05/22 11:22:30;;;;;;;4.03;1.77;;;20.00;84.60;;;;;;10396907;28;20473;-80
2022/05/22 11:28:37;;;;;;;2.92;1.65;;;20.20;74.50;;;;;;10381797;28;20285;-80
2022/05/22 11:34:13;;;;;;;4.47;2.58;;;20.80;1.00;;;;;;10394958;28;20252;-80
2022/05/22 11:39:58;;;;;;;4.05;1.88;;;20.10;1.00;;;;;;10367609;28;20292;-80
2022/05/22 11:45:33;;;;;;;3.63;1.60;;;19.70;21.00;;;;;;10396588;28;20193;-80
2022/05/22 11:51:17;;;;;;;3.13;1.88;;;19.60;11.30;;;;;;10395479;28;20363;-80
2022/05/22 11:57:02;;;;;;;5.68;1.70;;;19.20;4.30;;;;;;10395815;28;20204;-80
2022/05/22 12:02:52;;;;;;;2.45;1.52;;;19.50;26.30;;;;;;10415127;28;20219;-79
2022/05/22 12:08:19;;;;;;;2.60;1.40;;;19.20;1.00;;;;;;10384058;28;20210;-80
2022/05/22 12:13:52;;;;;;;3.53;1.58;;;19.30;1.00;;;;;;10402489;28;20192;-79
2022/05/22 12:19:52;;;;;;;4.10;2.67;;;19.60;1.00;;;;;;10388993;28;20201;-80
2022/05/22 12:25:22;;;;;;;4.40;2.40;;;19.30;1.00;;;;;;10403763;28;20363;-80
2022/05/22 12:30:44;;;;;;;2.17;1.40;;;19.10;1.00;;;;;;10402487;28;20199;-81
2022/05/22 12:36:07;;;;;;;2.03;1.55;;;18.80;1.00;;;;;;10403210;28;20257;-80
2022/05/22 12:41:35;;;;;;;3.42;1.73;;;18.50;1.00;;;;;;10387550;28;20231;-80
2022/05/22 12:46:57;;;;;;;3.03;1.92;;;18.20;1.00;;;;;;10402648;28;20373;-80
2022/05/22 12:52:27;;;;;;;2.17;1.60;;;18.40;1.00;;;;;;10401366;28;20205;-80
2022/05/22 12:57:57;;;;;;;2.25;1.50;;;18.90;38.30;;;;;;10401462;28;20199;-80
2022/05/22 13:03:26;;;;;;;3.72;1.60;;;19.00;23.40;;;;;;10428038;28;20223;-80
2022/05/22 13:09:04;;;;;;;3.03;1.85;;;19.60;1.00;;;;;;10368993;28;20212;-80
2022/05/22 13:14:52;;;;;;;3.80;1.73;;;19.70;1.00;;;;;;10400423;28;20189;-80
2022/05/22 13:20:34;;;;;;;4.13;1.65;;;19.90;1.00;;;;;;10400581;28;20237;-80
2022/05/22 13:25:59;;;;;;;2.53;1.85;;;20.00;1.00;;;;;;10399049;28;20201;-80
2022/05/22 13:31:36;;;;;;;2.10;1.67;;;19.60;1.00;;;;;;10400115;28;20587;-79
2022/05/22 13:37:04;;;;;;;2.95;1.65;;;19.40;1.00;;;;;;10386456;28;20237;-80
2022/05/22 13:43:03;;;;;;;4.97;1.67;;;19.10;1.00;;;;;;10385984;28;20227;-80
2022/05/22 13:48:49;;;;;;;4.03;1.70;;;18.50;1.00;;;;;;10385803;28;20281;-79
2022/05/22 13:54:24;;;;;;;4.32;1.88;;;18.20;1.00;;;;;;10398997;28;20212;-79
2022/05/22 13:59:50;;;;;;;3.85;2.00;;;18.30;1.00;;;;;;10398798;28;20229;-79
2022/05/22 14:05:13;;;;;;;3.95;1.35;;;18.20;1.00;;;;;;10371956;28;20408;-79
2022/05/22 14:10:38;;;;;;;3.10;1.98;;;18.10;1.00;;;;;;10398118;28;20488;-79
2022/05/22 14:16:02;;;;;;;6.18;2.00;;;17.90;1.00;;;;;;10398764;28;20515;-79
2022/05/22 14:21:24;;;;;;;3.72;1.70;;;18.00;1.00;;;;;;10397850;28;20225;-79
2022/05/22 14:26:48;;;;;;;3.75;1.60;;;18.00;1.00;;;;;;10397628;28;20197;-78
2022/05/22 14:32:19;;;;;;;8.77;2.55;;;18.10;1.00;;;;;;10398108;28;20197;-79
2022/05/22 14:37:42;;;;;;;6.35;2.03;;;18.10;1.00;;;;;;10398389;28;20199;-78
2022/05/22 14:43:04;;;;;;;5.55;2.20;;;18.00;1.00;;;;;;10398147;28;20296;-79
2022/05/22 14:48:29;;;;;;;1.92;1.73;;;18.00;1.00;;;;;;10398430;28;20193;-79
2022/05/22 14:54:05;;;;;;;4.72;1.90;;;17.90;1.00;;;;;;10397093;28;20208;-78
2022/05/22 14:59:48;;;;;;;8.00;2.50;;;17.60;1.00;;;;;;10396678;28;20197;-79
2022/05/22 15:05:41;;;;;;;3.53;2.30;;;17.60;1.00;;;;;;10369373;28;20365;-79
2022/05/22 15:11:28;;;;;;;2.10;1.70;;;17.60;1.00;;;;;;10397122;28;20239;-79
2022/05/22 15:16:50;;;;;;;2.17;1.30;;;17.60;1.00;;;;;;10382308;28;20276;-79
2022/05/22 15:28:22;;;;;;;3.15;1.88;;;17.30;1.00;;;;;;10395712;28;20243;-79
2022/05/22 15:33:55;;;;;;;1.88;1.27;;;17.10;1.00;;;;;;10396658;28;20240;-79
2022/05/22 15:39:30;;;;;;;2.53;1.67;;;16.90;1.00;;;;;;10395083;28;20223;-79
2022/05/22 15:44:54;;;;;;;1.73;1.42;;;17.00;1.00;;;;;;10381049;28;20211;-78
2022/05/22 15:55:57;;;;;;;1.88;1.70;;;17.20;1.00;;;;;;10395731;28;20558;-80
2022/05/22 16:01:21;;;;;;;4.35;1.92;;;17.00;1.00;;;;;;10405315;28;20234;-78
2022/05/22 16:06:44;;;;;;;2.75;1.70;;;16.70;1.00;;;;;;10410109;28;20479;-79
2022/05/22 16:12:06;;;;;;;3.03;1.77;;;16.50;1.00;;;;;;10395295;28;20495;-78
2022/05/22 16:17:30;;;;;;;5.43;2.25;;;16.40;1.00;;;;;;10395413;28;20196;-78
2022/05/22 16:22:52;;;;;;;3.90;1.70;;;16.40;1.00;;;;;;10394400;28;20226;-79
2022/05/22 16:28:14;;;;;;;3.05;2.15;;;16.10;1.00;;;;;;10394676;28;20278;-78
2022/05/22 16:33:36;;;;;;;4.93;2.00;;;16.10;1.00;;;;;;10393979;28;20243;-78
2022/05/22 16:38:58;;;;;;;8.90;2.42;;;15.90;1.00;;;;;;10380174;28;20201;-78
2022/05/22 16:44:22;;;;;;;2.55;1.63;;;15.60;1.00;;;;;;10395096;28;20220;-78
2022/05/22 16:55:23;;;;;;;2.92;1.75;;;15.70;1.00;;;;;;10393594;28;20389;-78
2022/05/22 17:00:47;;;;;;;2.65;1.75;;;15.60;1.00;;;;;;10373456;28;20548;-79
2022/05/22 17:06:16;;;;;;;4.32;2.03;;;15.40;1.00;;;;;;10421251;28;20201;-79
2022/05/22 17:11:44;;;;;;;3.38;2.13;;;15.30;1.00;;;;;;10400516;28;20495;-80
2022/05/22 17:17:07;;;;;;;3.50;1.90;;;15.20;1.00;;;;;;10401061;28;20223;-79
2022/05/22 17:22:32;;;;;;;6.22;1.80;;;15.10;1.00;;;;;;10386828;28;20229;-79
2022/05/22 17:27:59;;;;;;;4.55;2.15;;;14.90;1.00;;;;;;10400899;28;20529;-79
2022/05/22 17:33:21;;;;;;;3.97;1.90;;;14.60;1.00;;;;;;10400986;28;20282;-79
2022/05/22 17:38:43;;;;;;;4.70;2.47;;;14.50;1.00;;;;;;10400076;28;20192;-79
2022/05/22 17:44:05;;;;;;;5.05;2.67;;;14.50;1.00;;;;;;10400731;28;20254;-79
2022/05/22 17:49:26;;;;;;;3.45;2.30;;;14.40;1.00;;;;;;10385455;28;20199;-79
2022/05/22 17:54:49;;;;;;;2.90;2.05;;;14.30;1.00;;;;;;10398622;28;20510;-80
2022/05/22 18:00:11;;;;;;;3.15;2.30;;;14.30;1.00;;;;;;10401393;28;20634;-79
2022/05/22 18:05:34;;;;;;;3.97;2.90;;;14.30;1.00;;;;;;10425112;28;20285;-79
2022/05/22 18:16:39;;;;;;;3.88;2.78;;;14.10;1.00;;;;;;10398338;28;20513;-79
2022/05/22 18:22:07;;;;;;;4.07;2.78;;;14.10;1.00;;;;;;10399201;28;20230;-79
2022/05/22 18:27:31;;;;;;;4.53;3.03;;;14.00;1.00;;;;;;10398840;28;20482;-79
2022/05/22 18:32:52;;;;;;;3.15;2.85;;;14.00;1.00;;;;;;10397115;28;20240;-79
2022/05/22 18:38:13;;;;;;;4.82;3.17;;;13.90;1.00;;;;;;10397680;28;20230;-79
2022/05/22 18:43:38;;;;;;;4.82;3.35;;;13.80;1.00;;;;;;10397118;28;20221;-79
2022/05/22 18:49:00;;;;;;;4.22;2.88;;;13.70;1.00;;;;;;10397447;28;20190;-79
2022/05/22 18:54:21;;;;;;;6.55;4.25;;;13.60;1.00;;;;;;10383200;28;20211;-79
2022/05/22 18:59:42;;;;;;;7.78;5.00;;;13.50;1.00;;;;;;10397996;28;20224;-79
2022/05/22 19:05:05;;;;;;;9.25;5.80;;;13.50;1.00;;;;;;10368661;28;20223;-79
2022/05/22 19:10:37;;;;;;;9.90;6.05;;;13.40;1.00;;;;;;10382528;28;20202;-78
2022/05/22 19:16:03;;;;;;;9.50;6.95;;;13.30;1.00;;;;;;10396988;28;20292;-78
2022/05/22 19:21:24;;;;;;;12.75;10.10;;;13.30;1.00;;;;;;10396025;28;20302;-80
2022/05/22 19:26:49;;;;;;;18.88;12.05;;;13.10;1.00;;;;;;10397208;28;20494;-80
2022/05/22 19:32:17;;;;;;;17.98;12.60;;;13.10;1.00;;;;;;10396645;28;20195;-80
2022/05/22 19:37:38;;;;;;;16.02;11.30;;;13.00;1.00;;;;;;10395981;28;20202;-79
2022/05/22 19:48:41;;;;;;;12.30;8.98;;;12.90;95.00;;;;;;10395118;28;20268;-79
2022/05/22 19:58:35;;;;;;;14.80;7.57;;;12.80;99.90;;;;;;10395030;28;20286;-79
2022/05/22 19:59:44;;;;;;;23.60;10.32;;;12.70;99.90;;;;;;10394517;28;20206;-79
2022/05/22 20:05:05;;;;;;;23.52;12.65;;;12.60;99.90;;;;;;10367049;28;20198;-79
2022/05/22 20:10:27;;;;;;;27.95;16.02;;;12.50;1.00;;;;;;10395957;28;20219;-79
2022/05/22 20:15:48;;;;;;;36.15;20.23;;;12.20;1.00;;;;;;10395342;28;20194;-79
2022/05/22 20:21:11;;;;;;;26.45;13.82;;;12.00;99.90;;;;;;10355191;28;20327;-80
2022/05/22 20:26:33;;;;;;;18.02;9.95;;;11.80;1.00;;;;;;10355012;28;20217;-79
2022/05/22 20:31:54;;;;;;;47.27;25.93;;;11.70;1.00;;;;;;10355589;28;20191;-78
2022/05/22 20:37:15;;;;;;;56.35;33.70;;;11.70;1.00;;;;;;10377982;28;20305;-79
2022/05/22 20:42:39;;;;;;;60.85;35.53;;;11.70;1.00;;;;;;10351131;28;20220;-80
2022/05/22 20:48:02;;;;;;;54.42;33.38;;;11.50;1.00;;;;;;10402635;28;20191;-78
2022/05/22 20:53:25;;;;;;;43.53;26.40;;;11.40;15.80;;;;;;10401957;28;20284;-79
2022/05/22 20:58:46;;;;;;;41.92;25.25;;;11.30;1.00;;;;;;10401462;28;20217;-79
2022/05/22 21:04:08;;;;;;;41.33;24.73;;;11.40;1.00;;;;;;10431153;28;20220;-79
2022/05/22 21:09:32;;;;;;;35.20;19.30;;;11.20;1.00;;;;;;10387497;28;20447;-79
2022/05/22 21:14:54;;;;;;;22.75;13.85;;;11.20;1.00;;;;;;10401858;28;20190;-79
2022/05/22 21:20:19;;;;;;;24.83;13.73;;;11.20;99.90;;;;;;10401960;28;20235;-80
2022/05/22 21:31:25;;;;;;;21.70;11.77;;;10.80;99.90;;;;;;10401311;28;20196;-80
2022/05/22 21:36:47;;;;;;;15.97;10.53;;;10.70;1.00;;;;;;10399944;28;20537;-80
2022/05/22 21:42:09;;;;;;;104.13;52.97;;;10.60;1.00;;;;;;10400261;28;20219;-79
2022/05/22 21:47:30;;;;;;;183.40;94.87;;;10.50;1.00;;;;;;10399411;28;20187;-79
2022/05/22 21:52:51;;;;;;;215.73;123.93;;;10.40;1.00;;;;;;10372040;28;20200;-79
2022/05/22 21:58:15;;;;;;;95.33;54.53;;;10.30;1.00;;;;;;10398999;28;20284;-79
2022/05/22 22:03:39;;;;;;;46.93;26.67;;;10.30;1.00;;;;;;10428161;28;20223;-79
2022/05/22 22:09:00;;;;;;;31.37;17.57;;;;;;;;;;10359115;28;20196;-79
2022/05/22 22:14:22;;;;;;;22.47;14.13;;;10.00;1.00;;;;;;10381213;28;20487;-80
2022/05/22 22:19:43;;;;;;;23.97;12.07;;;9.90;1.00;;;;;;10398491;28;20208;-79
2022/05/22 22:25:05;;;;;;;18.47;11.33;;;9.70;1.00;;;;;;10397848;28;20581;-79
2022/05/22 22:30:26;;;;;;;19.00;11.20;;;9.70;1.00;;;;;;10384463;28;20243;-79
2022/05/22 22:35:47;;;;;;;20.17;10.80;;;9.60;1.00;;;;;;10398806;28;20227;-79
2022/05/22 22:41:09;;;;;;;19.80;10.93;;;9.50;1.00;;;;;;10397490;28;20231;-79
2022/05/22 22:46:33;;;;;;;27.40;12.77;;;9.50;1.00;;;;;;10396879;28;20203;-79
2022/05/22 22:51:55;;;;;;;25.57;13.13;;;9.50;1.00;;;;;;10398453;28;20378;-79
2022/05/22 23:03:00;;;;;;;23.83;11.70;;;9.30;1.00;;;;;;10421000;28;20305;-79
2022/05/22 23:08:22;;;;;;;25.40;13.03;;;9.30;1.00;;;;;;10398773;28;20208;-80
2022/05/22 23:13:43;;;;;;;20.47;11.67;;;9.30;1.00;;;;;;10397594;28;20200;-79
2022/05/22 23:19:05;;;;;;;26.77;15.23;;;9.20;1.00;;;;;;10396499;28;20193;-78
2022/05/22 23:24:26;;;;;;;22.10;14.70;;;9.10;1.00;;;;;;10396949;28;20488;-80
2022/05/22 23:29:47;;;;;;;26.07;15.47;;;9.10;1.00;;;;;;10396231;28;20393;-79
2022/05/22 23:35:10;;;;;;;24.37;14.93;;;9.10;1.00;;;;;;10396780;28;20284;-79
2022/05/22 23:40:33;;;;;;;23.87;14.80;;;9.00;1.00;;;;;;10395734;28;20203;-79
2022/05/22 23:45:54;;;;;;;21.97;13.53;;;8.90;1.00;;;;;;10395521;28;20195;-78
2022/05/22 23:51:16;;;;;;;21.80;12.33;;;9.00;1.00;;;;;;10395065;28;20237;-78
2022/05/22 23:56:37;;;;;;;22.23;13.07;;;8.80;1.00;;;;;;10394963;28;20206;-78
